M I D A S
Marine Information and Data Acquisition System
Tripno 305 of the Zeeleeuw from 2002-08-13 06:48:00 to 2002-08-13 13:10:00
Back to CruiseResearch ActivitiesStationsMapUnderway DataData graphs

EquipmentUnitsComments
TimeDGPSUTC
LatitudeDGPSDM.mWGS84
LongitudeDGPSDM.mWGS84
SpeedMeteo Stationm/sRelative wind speed
DirectionMeteo StationdegRelative wind direction
TemperatureMeteo Stationdeg CelciusAir temperature
PressureMeteo StationPaAtmospheric pressure
HumidityMeteo Station%Relative humidity
Missing or incorrect values are displayed as -999
Metereological data collected by the RV Zeeleeuw from 2002-08-13 06:48:00 to 2002-08-13 13:10:00
Time Latitude Longitude Speed Direction Temperature Pressure Humidity
2002-08-13 06:49 51°13.673 2°55.911 4.2 51 18.8 101940 73
2002-08-13 06:50 51°13.687 2°55.828 4.4 43 19 101940 73
2002-08-13 06:51 51°13.694 2°55.749 4.7 325 19 101940 73
2002-08-13 06:52 51°13.693 2°55.713 2.2 19 19.1 101950 72
2002-08-13 06:53 51°13.713 2°55.721 4.2 261 19.1 101950 73
2002-08-13 06:54 51°13.794 2°55.665 4.9 230 19.2 101940 72
2002-08-13 06:55 51°13.912 2°55.574 7.9 256 19.2 101940 72
2002-08-13 06:56 51°14.04 2°55.479 7.7 254 19.1 101940 72
2002-08-13 06:57 51°14.177 2°55.379 9.6 255 19.1 101940 74
2002-08-13 06:58 51°14.304 2°55.2 10.6 247 19 101930 73
2002-08-13 06:59 51°14.42 2°54.986 10.9 254 19 101930 74
2002-08-13 07:00 51°14.545 2°54.827 9.2 259 19 101930 73
2002-08-13 07:01 51°14.659 2°54.674 10.2 259 18.9 101930 73
2002-08-13 07:02 51°14.813 2°54.474 11.6 250 18.9 101930 74
2002-08-13 07:03 51°14.99 2°54.252 12 248 18.9 101930 73
2002-08-13 07:04 51°15.174 2°54.019 12.4 249 18.9 101930 75
2002-08-13 07:05 51°15.366 2°53.802 12.3 258 18.9 101930 74
2002-08-13 07:06 51°15.572 2°53.618 12.2 254 18.9 101930 74
2002-08-13 07:07 51°15.771 2°53.448 12 257 18.9 101930 75
2002-08-13 07:08 51°15.986 2°53.266 11.9 253 18.9 101930 74
2002-08-13 07:09 51°16.196 2°53.089 11.5 255 18.9 101930 74
2002-08-13 07:10 51°16.407 2°52.914 11.7 255 18.9 101930 74
2002-08-13 07:11 51°16.615 2°52.74 11 258 18.9 101930 74
2002-08-13 07:12 51°16.815 2°52.571 11.8 253 18.9 101930 74
2002-08-13 07:13 51°17.033 2°52.399 11.6 255 18.9 101930 74
2002-08-13 07:14 51°17.247 2°52.233 11.7 261 18.9 101930 73
2002-08-13 07:15 51°17.452 2°52.068 11.5 254 18.9 101930 73
2002-08-13 07:16 51°17.663 2°51.878 11.7 252 18.9 101940 73
2002-08-13 07:17 51°17.852 2°51.647 11.3 255 18.9 101930 74
2002-08-13 07:18 51°18.029 2°51.389 12.4 248 19 101940 74
2002-08-13 07:19 51°18.207 2°51.117 12.4 250 19 101930 74
2002-08-13 07:20 51°18.366 2°50.827 12 245 19 101930 74
2002-08-13 07:21 51°18.519 2°50.531 12.8 246 19 101930 73
2002-08-13 07:22 51°18.669 2°50.239 13.1 248 19 101930 74
2002-08-13 07:23 51°18.825 2°49.937 13.1 249 19 101940 72
2002-08-13 07:24 51°18.979 2°49.643 13.3 250 19 101940 71
2002-08-13 07:25 51°19.134 2°49.343 13.4 249 19.1 101930 71
2002-08-13 07:26 51°19.284 2°49.048 13.1 247 19.1 101930 70
2002-08-13 07:27 51°19.436 2°48.737 13 247 19.1 101940 72
2002-08-13 07:28 51°19.585 2°48.435 13.1 249 19.1 101930 71
2002-08-13 07:29 51°19.73 2°48.146 11.7 248 19.1 101930 72
2002-08-13 07:30 51°19.849 2°47.905 10 249 19.1 101940 73
2002-08-13 07:31 51°19.91 2°47.733 8.4 252 19 101940 72
2002-08-13 07:32 51°19.92 2°47.697 6.3 274 19 101960 72
2002-08-13 07:33 51°19.92 2°47.697 5.9 288 19 101960 72
2002-08-13 07:34 51°19.921 2°47.699 6.6 298 19 101960 73
2002-08-13 07:35 51°19.922 2°47.701 4.8 308 19.1 101970 75
2002-08-13 07:36 51°19.923 2°47.703 3 306 19 101970 74
2002-08-13 07:37 51°19.925 2°47.706 1.5 323 18.9 101970 73
2002-08-13 07:38 51°19.927 2°47.71 0.8 333 18.9 101970 74
2002-08-13 07:39 51°19.929 2°47.714 0.8 322 18.9 101970 74
2002-08-13 07:40 51°19.931 2°47.716 0.8 317 18.8 101970 74
2002-08-13 07:41 51°19.934 2°47.718 2.6 311 18.8 101980 74
2002-08-13 07:42 51°19.936 2°47.718 2.1 323 18.8 101970 74
2002-08-13 07:43 51°19.938 2°47.718 3.3 316 18.8 101970 75
2002-08-13 07:44 51°19.941 2°47.717 3.1 304 18.8 101970 75
2002-08-13 07:45 51°19.942 2°47.715 3.8 298 18.8 101970 76
2002-08-13 07:46 51°19.944 2°47.714 3.7 312 18.8 101980 75
2002-08-13 07:47 51°19.946 2°47.712 4.5 306 18.8 101970 74
2002-08-13 07:48 51°19.947 2°47.711 3.1 314 18.8 101980 74
2002-08-13 07:49 51°19.95 2°47.71 3.8 289 18.8 101980 72
2002-08-13 07:50 51°19.952 2°47.708 2.5 311 18.8 101980 74
2002-08-13 07:51 51°19.954 2°47.705 3.8 295 18.8 101980 73
2002-08-13 07:52 51°19.957 2°47.702 3.3 296 18.8 101980 73
2002-08-13 07:53 51°19.96 2°47.698 1.8 320 18.9 101980 73
2002-08-13 07:54 51°19.985 2°47.709 3.2 358 18.9 101980 74
2002-08-13 07:55 51°19.999 2°47.769 4.4 51 18.9 101990 72
2002-08-13 07:56 51°19.985 2°47.817 4.4 88 18.9 101990 71
2002-08-13 07:57 51°19.957 2°47.841 5.9 126 18.9 101990 73
2002-08-13 07:58 51°19.925 2°47.84 6.3 145 18.9 101990 72
2002-08-13 07:59 51°19.892 2°47.825 6.4 155 18.9 101990 72
2002-08-13 08:00 51°19.856 2°47.806 6.1 157 18.9 101990 70
2002-08-13 08:01 51°19.822 2°47.786 6.6 163 18.9 101990 69
2002-08-13 08:02 51°19.792 2°47.758 5.2 179 18.9 102000 72
2002-08-13 08:03 51°19.767 2°47.727 6.7 178 18.8 101990 70
2002-08-13 08:04 51°19.745 2°47.692 6.6 200 18.8 101990 70
2002-08-13 08:05 51°19.762 2°47.51 13.8 247 18.8 101980 71
2002-08-13 08:06 51°19.826 2°47.163 15.1 236 18.9 101970 70
2002-08-13 08:07 51°19.802 2°46.784 14 225 18.9 101970 72
2002-08-13 08:08 51°19.694 2°46.435 13.2 220 18.9 101970 74
2002-08-13 08:09 51°19.584 2°46.085 13.2 223 18.9 101970 75
2002-08-13 08:10 51°19.485 2°45.726 14.9 225 18.9 101970 77
2002-08-13 08:11 51°19.383 2°45.367 13.5 221 18.8 101970 78
2002-08-13 08:12 51°19.284 2°45.006 14.6 225 18.7 101970 78
2002-08-13 08:13 51°19.182 2°44.639 14.1 221 18.7 101970 78
2002-08-13 08:14 51°19.07 2°44.286 12.6 223 18.7 101970 79
2002-08-13 08:15 51°18.99 2°44.08 8.9 220 18.6 101990 79
2002-08-13 08:16 51°18.976 2°43.944 8.1 265 18.6 101990 79
2002-08-13 08:17 51°18.992 2°43.88 3.1 316 18.5 101990 78
2002-08-13 08:18 51°18.986 2°43.864 1 326 18.5 102010 79
2002-08-13 08:19 51°18.982 2°43.847 0.6 329 18.4 102010 80
2002-08-13 08:20 51°18.981 2°43.832 0.7 316 18.5 102010 80
2002-08-13 08:21 51°18.982 2°43.817 0.2 338 18.4 102010 80
2002-08-13 08:22 51°18.984 2°43.803 0.4 325 18.3 102010 80
2002-08-13 08:23 51°18.986 2°43.789 0.8 327 18.3 102010 81
2002-08-13 08:24 51°18.99 2°43.775 1.3 311 18.3 102010 81
2002-08-13 08:25 51°18.994 2°43.76 1.3 350 18.3 102010 80
2002-08-13 08:26 51°18.999 2°43.744 1 311 18.3 102010 80
2002-08-13 08:27 51°19.003 2°43.728 1.1 316 18.3 102010 80
2002-08-13 08:28 51°19.008 2°43.711 3.6 304 18.3 102010 80
2002-08-13 08:29 51°19.013 2°43.694 2.9 304 18.4 102010 80
2002-08-13 08:30 51°19.018 2°43.677 3.8 305 18.3 102010 79
2002-08-13 08:31 51°19.023 2°43.658 3.6 307 18.3 102010 78
2002-08-13 08:32 51°19.028 2°43.641 3.6 296 18.4 102000 79
2002-08-13 08:33 51°19.073 2°43.628 3.9 1 18.4 102000 79
2002-08-13 08:34 51°19.074 2°43.719 4.7 156 18.5 102010 79
2002-08-13 08:35 51°18.98 2°43.749 5.6 161 18.4 102000 78
2002-08-13 08:36 51°18.913 2°43.838 2.7 91 18.3 102000 78
2002-08-13 08:37 51°18.911 2°43.87 4.3 31 18.4 102010 78
2002-08-13 08:38 51°18.919 2°43.871 4.3 23 18.4 102010 77
2002-08-13 08:39 51°18.926 2°43.863 4.9 18 18.4 102010 78
2002-08-13 08:40 51°18.934 2°43.855 4.6 19 18.4 102010 80
2002-08-13 08:41 51°18.943 2°43.844 4.5 360 18.4 102020 80
2002-08-13 08:42 51°18.953 2°43.83 1.1 348 18.4 102010 79
2002-08-13 08:43 51°18.962 2°43.813 0.4 347 18.4 102020 79
2002-08-13 08:44 51°18.974 2°43.794 1.4 300 18.4 102010 81
2002-08-13 08:45 51°18.996 2°43.779 1 337 18.4 102020 80
2002-08-13 08:46 51°19.021 2°43.779 3.4 8 18.4 102020 80
2002-08-13 08:47 51°19.038 2°43.798 3 46 18.4 102020 79
2002-08-13 08:48 51°19.044 2°43.826 3.5 69 18.5 102020 79
2002-08-13 08:49 51°19.038 2°43.861 3.8 107 18.5 102020 78
2002-08-13 08:50 51°19.019 2°43.891 3.8 125 18.5 102010 79
2002-08-13 08:51 51°18.992 2°43.91 4.6 128 18.5 102010 79
2002-08-13 08:52 51°18.965 2°43.916 4.8 134 18.5 102020 80
2002-08-13 08:53 51°18.936 2°43.92 4.2 122 18.5 102010 79
2002-08-13 08:54 51°18.952 2°44.035 5 301 18.5 102020 80
2002-08-13 08:55 51°19.063 2°43.885 10.8 240 18.5 101990 80
2002-08-13 08:56 51°18.958 2°43.676 9.4 197 18.5 102000 80
2002-08-13 08:57 51°18.776 2°43.733 6.2 186 18.3 102000 80
2002-08-13 08:58 51°18.596 2°43.851 7.9 194 18.2 102000 81
2002-08-13 08:59 51°18.405 2°43.921 6.6 184 18.2 102000 81
2002-08-13 09:00 51°18.225 2°44.004 6.7 188 18.1 102010 81
2002-08-13 09:01 51°18.06 2°44.075 6.2 181 18.1 102010 80
2002-08-13 09:02 51°17.904 2°44.171 6 183 18.1 102010 80
2002-08-13 09:03 51°17.727 2°44.187 6.3 195 18.1 102000 82
2002-08-13 09:04 51°17.612 2°44.24 4.6 138 18.1 102010 82
2002-08-13 09:05 51°17.571 2°44.309 3.6 74 18.2 102010 82
2002-08-13 09:06 51°17.563 2°44.338 3.7 321 18.2 102010 81
2002-08-13 09:07 51°17.56 2°44.346 5.1 39 18.3 102020 80
2002-08-13 09:08 51°17.559 2°44.35 4.7 34 18.3 102020 81
2002-08-13 09:09 51°17.561 2°44.355 4.3 29 18.2 102010 81
2002-08-13 09:10 51°17.562 2°44.363 4.2 42 18.2 102010 81
2002-08-13 09:11 51°17.556 2°44.375 4.5 54 18.4 102020 82
2002-08-13 09:12 51°17.547 2°44.386 4.8 65 18.5 102020 80
2002-08-13 09:13 51°17.535 2°44.387 4.2 82 18.4 102010 80
2002-08-13 09:14 51°17.523 2°44.397 4.7 70 18.4 102020 81
2002-08-13 09:15 51°17.513 2°44.405 4.2 133 18.4 102020 82
2002-08-13 09:16 51°17.506 2°44.411 5.7 41 18.6 102020 81
2002-08-13 09:17 51°17.504 2°44.416 5.4 25 18.4 102020 80
2002-08-13 09:18 51°17.504 2°44.42 4.7 20 18.4 102020 81
2002-08-13 09:19 51°17.508 2°44.418 5.9 1 18.4 102020 82
2002-08-13 09:20 51°17.512 2°44.413 3.4 2 18.3 102020 81
2002-08-13 09:21 51°17.518 2°44.405 4.8 353 18.3 102020 81
2002-08-13 09:22 51°17.524 2°44.391 4.9 341 18.4 102010 83
2002-08-13 09:23 51°17.53 2°44.373 0.3 326 18.3 102020 82
2002-08-13 09:24 51°17.536 2°44.352 4.9 350 18.3 102020 83
2002-08-13 09:25 51°17.543 2°44.334 5.7 352 18.4 102010 83
2002-08-13 09:26 51°17.549 2°44.326 5.8 14 18.2 102020 82
2002-08-13 09:27 51°17.552 2°44.33 5.4 24 18.2 102020 82
2002-08-13 09:28 51°17.555 2°44.34 5.3 29 18.3 102020 82
2002-08-13 09:29 51°17.552 2°44.359 5.3 58 18.2 102020 82
2002-08-13 09:30 51°17.534 2°44.386 5.3 85 18.2 102020 81
2002-08-13 09:31 51°17.502 2°44.409 5.2 112 18.2 102020 82
2002-08-13 09:32 51°17.458 2°44.418 5.6 140 18.2 102020 82
2002-08-13 09:33 51°17.411 2°44.412 5.8 144 18.2 102020 82
2002-08-13 09:34 51°17.363 2°44.394 6.1 157 18.2 102020 82
2002-08-13 09:35 51°17.298 2°44.35 8 213 18.2 102020 83
2002-08-13 09:36 51°17.262 2°44.097 12.9 247 18.2 102010 82
2002-08-13 09:37 51°17.305 2°43.772 12.2 251 18.3 102010 82
2002-08-13 09:38 51°17.387 2°43.428 12.7 252 18.4 102010 82
2002-08-13 09:39 51°17.48 2°43.088 12.6 252 18.4 102010 82
2002-08-13 09:40 51°17.559 2°42.737 13.2 240 18.4 102010 82
2002-08-13 09:41 51°17.467 2°42.393 13.7 224 18.4 102010 81
2002-08-13 09:42 51°17.34 2°42.067 12.3 225 18.3 102000 80
2002-08-13 09:43 51°17.243 2°41.754 10.3 221 18.4 102000 81
2002-08-13 09:44 51°17.191 2°41.568 8.5 250 18.3 102010 80
2002-08-13 09:45 51°17.212 2°41.446 7.1 271 18.4 102020 80
2002-08-13 09:46 51°17.253 2°41.375 1.5 317 18.4 102020 81
2002-08-13 09:47 51°17.287 2°41.359 2.9 343 18.4 102030 80
2002-08-13 09:48 51°17.307 2°41.359 4.8 13 18.3 102030 80
2002-08-13 09:49 51°17.318 2°41.37 4.7 10 18.3 102030 80
2002-08-13 09:50 51°17.323 2°41.369 6.4 15 18.3 102030 80
2002-08-13 09:51 51°17.314 2°41.349 5.3 6 18.3 102030 80
2002-08-13 09:52 51°17.312 2°41.337 5   18.2 102020 78
2002-08-13 09:53 51°17.319 2°41.331 3.6 339 18.3 102030 80
2002-08-13 09:54 51°17.324 2°41.336 4.4 27 18.4 102030 81
2002-08-13 09:55 51°17.324 2°41.347 4.3 34 18.4 102030 81
2002-08-13 09:56 51°17.319 2°41.359 4.4 63 18.4 102040 81
2002-08-13 09:57 51°17.305 2°41.372 5.2 88 18.4 102040 80
2002-08-13 09:58 51°17.282 2°41.379 5.2 106 18.4 102040 80
2002-08-13 09:59 51°17.258 2°41.379 5.2 121 18.4 102040 81
2002-08-13 10:00 51°17.233 2°41.374 4.8 124 18.4 102040 81
2002-08-13 10:01 51°17.207 2°41.369 4.1 110 18.4 102030 81
2002-08-13 10:02 51°17.183 2°41.38 4.7 70 18.4 102040 81
2002-08-13 10:03 51°17.188 2°41.41 4.1 353 18.4 102040 80
2002-08-13 10:04 51°17.224 2°41.398 3.6 308 18.3 102030 80
2002-08-13 10:05 51°17.276 2°41.367 4.6 306 18.3 102030 80
2002-08-13 10:06 51°17.316 2°41.315 5.1 304 18.3 102030 80
2002-08-13 10:07 51°17.338 2°41.266 2.9 311 18.4 102030 81
2002-08-13 10:08 51°17.349 2°41.224 6.1 300 18.5 102030 81
2002-08-13 10:09 51°17.344 2°41.192 2.4 305 18.5 102030 81
2002-08-13 10:10 51°17.325 2°41.17 0.5 333 18.5 102030 81
2002-08-13 10:11 51°17.295 2°41.149 4.5 344 18.4 102030 80
2002-08-13 10:12 51°17.267 2°41.122 5.4 6 18.3 102030 79
2002-08-13 10:13 51°17.256 2°41.103 5 32 18.3 102030 80
2002-08-13 10:14 51°17.248 2°41.107 4.6 62 18.3 102040 81
2002-08-13 10:15 51°17.232 2°41.133 4.1 74 18.3 102040 80
2002-08-13 10:16 51°17.218 2°41.18 3.6 50 18.3 102030 80
2002-08-13 10:17 51°17.223 2°41.236 3 43 18.4 102040 81
2002-08-13 10:18 51°17.234 2°41.277 3.4 47 18.5 102040 80
2002-08-13 10:19 51°17.244 2°41.308 4 29 18.7 102030 79
2002-08-13 10:20 51°17.255 2°41.323 3.6 10 18.6 102040 78
2002-08-13 10:21 51°17.265 2°41.325 4.1 7 18.5 102030 78
2002-08-13 10:22 51°17.273 2°41.317 4.3 355 18.4 102040 77
2002-08-13 10:23 51°17.279 2°41.301 1.8 339 18.4 102030 78
2002-08-13 10:24 51°17.282 2°41.28 2.3 340 18.4 102040 79
2002-08-13 10:25 51°17.283 2°41.256 2.2 336 18.3 102040 80
2002-08-13 10:26 51°17.281 2°41.228 1.1 331 18.3 102040 79
2002-08-13 10:27 51°17.277 2°41.199 2.5 343 18.3 102040 78
2002-08-13 10:28 51°17.272 2°41.171 1 344 18.3 102030 78
2002-08-13 10:29 51°17.284 2°41.155 3.4 22 18.4 102040 80
2002-08-13 10:30 51°17.279 2°41.229 2.3 90 18.5 102030 80
2002-08-13 10:31 51°17.259 2°41.289 3.6 72 18.5 102040 80
2002-08-13 10:32 51°17.249 2°41.306 4.3 50 18.5 102040 79
2002-08-13 10:33 51°17.244 2°41.311 4.2 33 18.7 102040 79
2002-08-13 10:34 51°17.24 2°41.308 5.2 24 18.6 102050 78
2002-08-13 10:35 51°17.238 2°41.301 5 13 18.5 102050 78
2002-08-13 10:36 51°17.24 2°41.289 3.9 350 18.4 102050 78
2002-08-13 10:37 51°17.245 2°41.271 3.2 341 18.4 102050 79
2002-08-13 10:38 51°17.253 2°41.247 1.2 336 18.4 102050 78
2002-08-13 10:39 51°17.261 2°41.218 1.1 349 18.4 102050 79
2002-08-13 10:40 51°17.269 2°41.187 0.9 333 18.4 102040 79
2002-08-13 10:41 51°17.281 2°41.159 1.2 347 18.5 102050 81
2002-08-13 10:42 51°17.288 2°41.137 4.7 2 18.5 102050 80
2002-08-13 10:43 51°17.293 2°41.116 4.4 348 18.5 102040 78
2002-08-13 10:44 51°17.297 2°41.104 5.2 13 18.5 102040 79
2002-08-13 10:45 51°17.298 2°41.102 4.1 45 18.4 102040 78
2002-08-13 10:46 51°17.291 2°41.112 4.2 55 18.5 102040 78
2002-08-13 10:47 51°17.281 2°41.127 3.7 69 18.6 102040 77
2002-08-13 10:48 51°17.27 2°41.15 2.3 63 18.7 102040 79
2002-08-13 10:49 51°17.257 2°41.176 3.9 74 18.6 102040 78
2002-08-13 10:50 51°17.241 2°41.205 4.5 93 18.5 102040 78
2002-08-13 10:51 51°17.215 2°41.231 4.3 107 18.6 102040 79
2002-08-13 10:52 51°17.183 2°41.257 4.2 98 18.6 102040 78
2002-08-13 10:53 51°17.17 2°41.288 4.3 20 18.6 102040 77
2002-08-13 10:54 51°17.19 2°41.281 2.7 309 18.6 102030 78
2002-08-13 10:55 51°17.206 2°41.207 7.3 274 18.6 102030 78
2002-08-13 10:56 51°17.188 2°41.106 7.9 233 18.7 102030 78
2002-08-13 10:57 51°17.133 2°41.033 6.2 176 18.6 102020 75
2002-08-13 10:58 51°17.034 2°41.034 8.2 175 18.5 102020 78
2002-08-13 10:59 51°16.884 2°41.019 8 202 18.4 102020 79
2002-08-13 11:00 51°16.727 2°40.93 9.8 204 18.3 102020 78
2002-08-13 11:01 51°16.57 2°40.838 9.4 199 18.2 102010 79
2002-08-13 11:02 51°16.408 2°40.757 9.5 198 18.2 102020 79
2002-08-13 11:03 51°16.249 2°40.67 9.1 199 18.2 102020 79
2002-08-13 11:04 51°16.09 2°40.578 9.7 199 18.1 102020 80
2002-08-13 11:05 51°15.93 2°40.494 8.1 202 18.1 102020 80
2002-08-13 11:06 51°15.768 2°40.434 8.4 196 18.1 102020 80
2002-08-13 11:07 51°15.604 2°40.406 6.5 181 18.1 102020 79
2002-08-13 11:08 51°15.444 2°40.441 6.5 177 18.1 102020 80
2002-08-13 11:09 51°15.288 2°40.497 7 179 18.1 102030 79
2002-08-13 11:10 51°15.137 2°40.55 6.2 182 18.2 102020 80
2002-08-13 11:11 51°14.983 2°40.602 7.5 174 18.2 102020 78
2002-08-13 11:12 51°14.83 2°40.654 6.7 177 18.2 102020 78
2002-08-13 11:13 51°14.678 2°40.702 6.2 182 18.2 102020 78
2002-08-13 11:14 51°14.525 2°40.748 7.4 180 18.2 102020 79
2002-08-13 11:15 51°14.378 2°40.791 7 178 18.2 102020 78
2002-08-13 11:16 51°14.272 2°40.812 5.7 157 18.3 102030 77
2002-08-13 11:17 51°14.193 2°40.83 5.4 143 18.3 102030 77
2002-08-13 11:18 51°14.144 2°40.871 4 110 18.4 102040 76
2002-08-13 11:19 51°14.106 2°40.918 4.3 95 18.5 102040 77
2002-08-13 11:20 51°14.087 2°40.959 4.3 53 18.5 102040 77
2002-08-13 11:21 51°14.088 2°40.992 3.6 44 18.6 102040 76
2002-08-13 11:22 51°14.089 2°41.031 3.2 45 18.7 102040 78
2002-08-13 11:23 51°14.094 2°41.073 3.9 33 18.8 102040 75
2002-08-13 11:24 51°14.099 2°41.095 4.3 22 18.8 102030 77
2002-08-13 11:25 51°14.096 2°41.091 5.4 4 18.6 102040 73
2002-08-13 11:26 51°14.094 2°41.085 4.8 359 18.6 102040 75
2002-08-13 11:27 51°14.095 2°41.076 4.4 4 18.7 102040 76
2002-08-13 11:28 51°14.098 2°41.069 4.8 4 18.7 102040 75
2002-08-13 11:29 51°14.102 2°41.063 4.5 15 18.7 102030 75
2002-08-13 11:30 51°14.105 2°41.063 4.5 22 18.7 102030 74
2002-08-13 11:31 51°14.106 2°41.069 4.3 24 18.6 102040 73
2002-08-13 11:32 51°14.109 2°41.071 4.2 6 18.6 102030 73
2002-08-13 11:33 51°14.115 2°41.07 4.2 4 18.6 102030 75
2002-08-13 11:34 51°14.123 2°41.067 4.2 5 18.7 102030 74
2002-08-13 11:35 51°14.132 2°41.066 4.1 2 18.7 102030 74
2002-08-13 11:36 51°14.14 2°41.068 4.3 2 18.7 102030 75
2002-08-13 11:37 51°14.148 2°41.073 4.1 17 18.7 102030 72
2002-08-13 11:38 51°14.154 2°41.081 4 21 18.7 102030 72
2002-08-13 11:39 51°14.159 2°41.095 3.8 36 18.7 102030 71
2002-08-13 11:40 51°14.156 2°41.114 3.1 51 18.7 102030 74
2002-08-13 11:41 51°14.143 2°41.131 4.1 96 18.9 102030 73
2002-08-13 11:42 51°14.133 2°41.103 5 84 18.9 102030 72
2002-08-13 11:43 51°14.124 2°41.075 5.3 97 18.8 102030 72
2002-08-13 11:44 51°14.107 2°41.076 4.6 106 18.8 102030 73
2002-08-13 11:45 51°14.084 2°41.093 4.6 113 18.8 102020 72
2002-08-13 11:46 51°14.061 2°41.115 4.2 74 18.8 102030 73
2002-08-13 11:47 51°14.049 2°41.133 4.1 131 18.8 102030 73
2002-08-13 11:48 51°14.045 2°41.146 4.5 30 19 102030 71
2002-08-13 11:49 51°14.046 2°41.156 4.6 15 18.8 102030 70
2002-08-13 11:50 51°14.051 2°41.16 4.6 13 18.8 102030 70
2002-08-13 11:51 51°14.057 2°41.162 4.7 3 18.8 102030 72
2002-08-13 11:52 51°14.062 2°41.167 4.2 26 18.8 102030 71
2002-08-13 11:53 51°14.059 2°41.183 3.4 59 18.8 102040 72
2002-08-13 11:54 51°14.045 2°41.205 4.3 88 18.9 102040 72
2002-08-13 11:55 51°14.023 2°41.229 4 103 18.9 102030 74
2002-08-13 11:56 51°13.995 2°41.256 4.2 105 18.9 102030 73
2002-08-13 11:57 51°13.961 2°41.277 3.8 118 19 102030 73
2002-08-13 11:58 51°13.921 2°41.29 4.8 133 19 102030 73
2002-08-13 11:59 51°13.857 2°41.337 3.7 102 19 102020 72
2002-08-13 12:00 51°13.879 2°41.524 1.8 279 19 102030 72
2002-08-13 12:01 51°13.935 2°41.839 2.7 252 19.1 102030 71
2002-08-13 12:02 51°13.994 2°42.171 2.4 240 19.2 102030 71
2002-08-13 12:03 51°14.046 2°42.495 2.4 242 19.3 102020 71
2002-08-13 12:04 51°14.098 2°42.833 2.8 255 19.4 102020 71
2002-08-13 12:05 51°14.151 2°43.164 2.3 249 19.4 102030 71
2002-08-13 12:06 51°14.203 2°43.494 2.3 250 19.4 102020 71
2002-08-13 12:07 51°14.256 2°43.825 2.4 241 19.5 102020 70
2002-08-13 12:08 51°14.308 2°44.152 2.3 250 19.5 102020 70
2002-08-13 12:09 51°14.363 2°44.483 2.1 221 19.5 102030 70
2002-08-13 12:10 51°14.416 2°44.817 3 244 19.5 102020 70
2002-08-13 12:11 51°14.469 2°45.155 2.8 233 19.6 102020 71
2002-08-13 12:12 51°14.521 2°45.482 2.3 224 19.6 102020 69
2002-08-13 12:13 51°14.57 2°45.806 2.5 243 19.6 102030 70
2002-08-13 12:14 51°14.619 2°46.152 2.7 256 19.7 102030 70
2002-08-13 12:15 51°14.674 2°46.499 2.6 244 19.7 102030 69
2002-08-13 12:16 51°14.726 2°46.845 2.9 242 19.7 102020 69
2002-08-13 12:17 51°14.777 2°47.189 2.6 249 19.7 102030 70
2002-08-13 12:18 51°14.828 2°47.525 2.6 258 19.8 102030 69
2002-08-13 12:19 51°14.879 2°47.872 2.2 249 19.7 102030 70
2002-08-13 12:20 51°14.929 2°48.213 1.7 215 19.7 102030 69
2002-08-13 12:21 51°14.977 2°48.553 2.2 228 19.7 102020 68
2002-08-13 12:22 51°15.026 2°48.895 2.9 242 19.8 102020 70
2002-08-13 12:23 51°15.074 2°49.232 2.8 245 19.9 102030 69
2002-08-13 12:24 51°15.123 2°49.574 2.5 235 19.9 102030 68
2002-08-13 12:25 51°15.164 2°49.92 2.2 227 19.9 102030 67
2002-08-13 12:26 51°15.197 2°50.267 1.4 207 19.9 102030 67
2002-08-13 12:27 51°15.217 2°50.517 0.5 71 19.8 102030 68
2002-08-13 12:28 51°15.233 2°50.729 0.4 204 19.9 102030 67
2002-08-13 12:29 51°15.257 2°51.051 2.6 221 19.8 102030 67
2002-08-13 12:30 51°15.273 2°51.409 2.3 223 19.9 102030 70
2002-08-13 12:31 51°15.258 2°51.759 3.5 190 19.7 102030 71
2002-08-13 12:32 51°15.186 2°52.1 3.4 199 19.4 102030 71
2002-08-13 12:33 51°15.108 2°52.444 2.9 197 19.2 102030 72
2002-08-13 12:34 51°15.023 2°52.77 3.8 194 19.1 102030 73
2002-08-13 12:35 51°14.935 2°53.077 3.4 183 19.1 102030 73
2002-08-13 12:36 51°14.846 2°53.381 2.4 177 19.1 102030 74
2002-08-13 12:37 51°14.762 2°53.675 3.7 174 19.1 102020 74
2002-08-13 12:38 51°14.677 2°53.982 2.7 170 19.1 102030 73
2002-08-13 12:39 51°14.606 2°54.293 2.8 181 19.1 102030 72
2002-08-13 12:40 51°14.529 2°54.594 3.5 193 19.1 102030 73
2002-08-13 12:41 51°14.436 2°54.889 4.1 186 19.1 102030 74
2002-08-13 12:42 51°14.319 2°55.156 3.2 196 19.1 102020 73
2002-08-13 12:43 51°14.227 2°55.323 3.7 156 19.2 102030 73
2002-08-13 12:44 51°14.147 2°55.402 2.9 158 19.3 102030 73
2002-08-13 12:45 51°14.075 2°55.458 4.2 202 19.5 102030 71
2002-08-13 12:46 51°14.002 2°55.51 2.8 126 19.7 102020 68
2002-08-13 12:47 51°13.921 2°55.566 2.7 167 19.8 102030 68
2002-08-13 12:48 51°13.845 2°55.617 0.6 224 20 102020 68
2002-08-13 12:49 51°13.787 2°55.663 3.7 160 20.2 102030 66
2002-08-13 12:50 51°13.744 2°55.718 3.2 128 20.3 102030 65
2002-08-13 12:51 51°13.707 2°55.782 3 90 20.2 102020 66
2002-08-13 12:52 51°13.682 2°55.852 2.3 46 20.3 102020 66
2002-08-13 12:53 51°13.667 2°55.921 3.4 15 20.3 102020 67
2002-08-13 12:54 51°13.662 2°55.952 2.6 74 20.3 102020 67
2002-08-13 12:55 51°13.664 2°55.948 4.8 61 20.4 102020 65
2002-08-13 12:56 51°13.664 2°55.952 4.5 52 20.3 102020 66
2002-08-13 12:57 51°13.664 2°55.955 2.8 60 20.3 102010 67
2002-08-13 12:58 51°13.664 2°55.955 3.4 54 20.3 102020 67
2002-08-13 12:59 51°13.664 2°55.955 3.2 96 20.4 102010 66
2002-08-13 13:00 51°13.664 2°55.955 4.8 64 20.4 102010 67
2002-08-13 13:01 51°13.664 2°55.955 4 57 20.4 102010 65
2002-08-13 13:02 51°13.665 2°55.955 3.3 130 20.5 102010 66
2002-08-13 13:03 51°13.665 2°55.954 3.5 55 20.6 102010 65
2002-08-13 13:04 51°13.665 2°55.955 4.9 76 20.3 102010 66
2002-08-13 13:05 51°13.665 2°55.955 3.8 80 20.1 102010 64
2002-08-13 13:06 51°13.665 2°55.954 4.4 76 20.2 102010 67
2002-08-13 13:07 51°13.665 2°55.954 4 86 20.1 102010 65
2002-08-13 13:08 51°13.664 2°55.954 4.5 72 20.2 102000 67
2002-08-13 13:09 51°13.664 2°55.956 3.2 69 20.1 102010 65